Time;durP1;ratioP1;P1;durP2;ratioP2;P2;SDS_P1;SDS_P2;PMS_P1;PMS_P2;Temp;Humidity;BMP_temperature;BMP_pressure;BME280_temperature;BME280_humidity;BME280_pressure;Samples;Min_cycle;Max_cycle;Signal;HPM_P1;HPM_P2
2021/11/07 11:08:39;;;;;;;13.60;12.30;;;6.60;99.90;;;;;;5066757;28;20560;-52
2021/11/07 11:14:13;;;;;;;13.00;11.60;;;6.50;99.90;;;;;;5055844;28;20185;-50
2021/11/07 11:28:15;;;;;;;15.20;13.60;;;6.50;99.90;;;;;;4830642;28;74354;-52
2021/11/07 11:30:24;;;;;;;13.93;12.53;;;6.30;99.90;;;;;;4989533;28;20292;-50
2021/11/07 11:33:02;;;;;;;15.83;14.23;;;6.30;99.90;;;;;;5033962;28;20248;-56
2021/11/07 11:35:42;;;;;;;16.40;14.70;;;6.20;99.90;;;;;;5034492;28;20202;-54
2021/11/07 11:43:35;;;;;;;14.40;12.90;;;6.00;99.90;;;;;;5036154;28;20190;-56
2021/11/07 11:46:43;;;;;;;15.27;13.67;;;6.00;99.90;;;;;;5029685;28;20266;-54
2021/11/07 12:05:40;;;;;;;14.03;12.63;;;6.50;99.90;;;;;;5020358;28;20195;-51
2021/11/07 12:08:12;;;;;;;14.77;13.17;;;6.60;99.90;;;;;;5016256;28;20338;-59
2021/11/07 12:10:46;;;;;;;13.83;12.47;;;6.60;99.90;;;;;;5015545;28;20246;-57
2021/11/07 12:16:22;;;;;;;13.30;11.90;;;7.00;99.90;;;;;;5014711;28;20201;-56
2021/11/07 12:19:06;;;;;;;14.73;13.23;;;7.10;99.90;;;;;;5012992;28;20189;-56
2021/11/07 12:21:48;;;;;;;14.53;12.97;;;7.20;99.90;;;;;;5010931;28;20192;-53
2021/11/07 12:24:18;;;;;;;13.20;11.80;;;7.20;99.90;;;;;;5006697;28;20178;-53
2021/11/07 12:26:44;;;;;;;12.30;10.93;;;7.20;99.90;;;;;;4991118;28;20287;-54
2021/11/07 12:29:11;;;;;;;13.20;11.80;;;7.20;99.90;;;;;;4963472;28;20169;-54
2021/11/07 12:32:02;;;;;;;14.47;12.97;;;7.10;99.90;;;;;;4990887;28;20557;-57
2021/11/07 12:40:36;;;;;;;11.43;10.23;;;7.30;99.90;;;;;;4990376;28;20235;-56
2021/11/07 12:43:07;;;;;;;12.73;11.40;;;7.40;99.90;;;;;;4988343;28;20177;-55
2021/11/07 12:45:38;;;;;;;12.07;10.77;;;7.50;99.90;;;;;;4973835;28;20190;-55
2021/11/07 12:48:07;;;;;;;11.90;10.70;;;7.80;99.90;;;;;;4972820;28;20209;-57
2021/11/07 12:50:56;;;;;;;11.47;10.30;;;8.00;99.90;;;;;;4977576;28;20224;-59
2021/11/07 12:53:25;;;;;;;11.00;9.90;;;8.10;99.90;;;;;;5015957;28;20180;-54
2021/11/07 15:35:29;;;;;;;19.37;17.27;;;5.50;99.90;;;;;;5089687;28;20488;-57
2021/11/07 15:37:55;;;;;;;17.47;15.57;;;5.60;99.90;;;;;;5078828;28;20177;-56
2021/11/07 15:40:29;;;;;;;37.67;33.57;;;5.80;99.90;;;;;;5083885;28;20681;-56
2021/11/07 15:42:54;;;;;;;18.57;16.67;;;6.20;99.90;;;;;;5087384;28;20169;-60
2021/11/07 15:45:22;;;;;;;17.07;14.33;;;6.50;99.90;;;;;;5087156;28;20180;-56
2021/11/07 15:47:52;;;;;;;15.20;12.93;;;6.80;99.90;;;;;;5085827;28;20656;-57
2021/11/07 15:50:27;;;;;;;15.67;13.97;;;7.00;99.90;;;;;;5086683;28;20188;-59
2021/11/07 16:06:22;;;;;;;15.07;13.00;;;7.60;99.90;;;;;;5085685;28;20196;-59
2021/11/07 16:09:13;;;;;;;17.37;15.57;;;7.70;99.90;;;;;;5084062;28;20300;-60
2021/11/07 16:17:03;;;;;;;13.43;12.03;;;7.60;99.90;;;;;;5077935;28;20699;-59
2021/11/07 16:19:32;;;;;;;13.87;12.30;;;7.70;99.90;;;;;;5085567;28;20182;-59
2021/11/07 16:21:57;;;;;;;13.93;12.43;;;7.80;99.90;;;;;;5085809;28;20205;-60
2021/11/07 16:24:27;;;;;;;13.83;12.43;;;7.90;99.90;;;;;;5084821;28;20205;-58
2021/11/07 16:26:58;;;;;;;13.93;12.53;;;7.90;99.90;;;;;;5084332;28;20181;-58
2021/11/07 16:29:26;;;;;;;15.30;13.33;;;7.90;99.90;;;;;;5073386;28;20602;-53
2021/11/07 16:32:08;;;;;;;14.53;13.03;;;7.90;99.90;;;;;;5085811;28;20549;-56
2021/11/07 16:34:48;;;;;;;15.07;13.47;;;7.90;99.90;;;;;;5085835;28;20213;-58
2021/11/07 16:37:22;;;;;;;15.90;14.20;;;7.90;99.90;;;;;;5086361;28;20166;-55
2021/11/07 16:40:12;;;;;;;17.30;15.50;;;7.90;99.90;;;;;;5087202;28;20194;-53
2021/11/07 16:42:39;;;;;;;15.33;13.67;;;7.90;99.90;;;;;;5086521;28;20184;-57
2021/11/07 16:45:06;;;;;;;15.23;13.33;;;7.90;99.90;;;;;;5082394;28;20250;-54
2021/11/07 16:47:36;;;;;;;14.20;12.70;;;8.00;99.90;;;;;;5058433;28;20182;-56
2021/11/07 16:50:04;;;;;;;13.97;12.50;;;8.00;99.90;;;;;;5052555;28;20201;-59
2021/11/07 16:52:31;;;;;;;15.07;13.50;;;7.90;99.90;;;;;;5052936;28;20172;-55
2021/11/07 16:55:00;;;;;;;15.03;13.43;;;7.90;99.90;;;;;;5052863;28;20720;-54
2021/11/07 16:57:29;;;;;;;15.00;12.90;;;7.90;99.90;;;;;;5052377;28;20224;-55
2021/11/07 17:00:31;;;;;;;16.17;13.70;;;8.00;99.90;;;;;;5052118;28;20191;-56
2021/11/07 17:02:53;;;;;;;20.03;16.73;;;8.10;99.90;;;;;;5050481;28;20186;-56
2021/11/07 17:05:43;;;;;;;16.33;14.53;;;8.00;99.90;;;;;;5051806;28;20171;-56
2021/11/07 17:10:38;;;;;;;17.30;15.07;;;8.00;99.90;;;;;;5062678;28;20197;-59
2021/11/07 17:13:08;;;;;;;18.10;14.87;;;8.00;99.90;;;;;;5061180;28;20175;-52
2021/11/07 17:15:47;;;;;;;17.07;14.77;;;8.10;99.90;;;;;;5060456;28;20266;-59
2021/11/07 17:18:19;;;;;;;18.63;15.83;;;8.10;99.90;;;;;;5060847;28;20174;-52
2021/11/07 17:23:18;;;;;;;90.03;73.20;;;8.10;99.90;;;;;;5061754;28;20686;-53
2021/11/07 17:30:54;;;;;;;16.63;14.87;;;8.10;99.90;;;;;;5061868;28;20245;-53
2021/11/07 17:33:35;;;;;;;16.23;14.50;;;8.10;99.90;;;;;;5060861;28;20233;-54
2021/11/07 17:36:21;;;;;;;17.80;15.90;;;8.20;99.90;;;;;;5061091;28;20217;-54
2021/11/07 17:55:08;;;;;;;15.33;13.73;;;7.70;99.90;;;;;;5059298;28;20206;-52
2021/11/07 17:57:36;;;;;;;15.43;13.60;;;7.80;99.90;;;;;;5057258;28;20179;-55
2021/11/07 18:00:06;;;;;;;27.53;21.10;;;7.80;99.90;;;;;;5060763;28;20210;-52
2021/11/07 18:02:32;;;;;;;15.27;13.67;;;7.80;99.90;;;;;;5061088;28;20163;-53
2021/11/07 18:05:01;;;;;;;15.43;13.67;;;8.30;99.90;;;;;;5059879;28;20182;-51
2021/11/07 18:07:33;;;;;;;15.77;14.00;;;7.70;99.90;;;;;;5060681;28;20181;-56
2021/11/07 18:10:03;;;;;;;15.50;13.53;;;7.70;99.90;;;;;;5059168;28;20195;-54
2021/11/07 18:12:31;;;;;;;16.60;14.80;;;7.60;99.90;;;;;;5060320;28;20174;-55
2021/11/07 18:14:57;;;;;;;16.27;14.47;;;7.60;99.90;;;;;;5061502;28;20193;-53
2021/11/07 18:17:23;;;;;;;16.30;14.60;;;7.30;99.90;;;;;;5058901;28;20958;-57
2021/11/07 18:19:50;;;;;;;18.23;16.23;;;7.30;99.90;;;;;;5056614;28;20217;-56
2021/11/07 18:24:48;;;;;;;16.93;15.03;;;7.40;99.90;;;;;;5056469;28;20183;-54
2021/11/07 18:27:16;;;;;;;17.33;15.53;;;7.50;99.90;;;;;;5064656;28;20188;-52
2021/11/07 18:29:44;;;;;;;16.77;14.97;;;7.60;99.90;;;;;;5063393;28;20182;-51
2021/11/07 18:32:10;;;;;;;15.97;14.27;;;7.70;99.90;;;;;;5063267;28;20258;-52
2021/11/07 18:34:35;;;;;;;16.10;14.47;;;7.70;99.90;;;;;;5057737;28;20261;-51
2021/11/07 18:37:01;;;;;;;17.20;15.40;;;7.80;99.90;;;;;;5064289;28;20175;-53
2021/11/07 18:39:28;;;;;;;17.50;15.40;;;7.90;99.90;;;;;;5059207;28;20175;-54
2021/11/07 18:41:54;;;;;;;15.93;14.23;;;7.90;99.90;;;;;;5061552;28;20227;-53
2021/11/07 18:44:20;;;;;;;16.60;14.03;;;7.80;99.90;;;;;;5057456;28;20168;-51
2021/11/07 18:46:46;;;;;;;16.90;15.10;;;7.80;99.90;;;;;;5057229;28;20178;-53
2021/11/07 18:49:12;;;;;;;17.03;15.23;;;7.90;99.90;;;;;;5060350;28;20257;-56
2021/11/07 18:51:38;;;;;;;15.87;14.23;;;8.00;99.90;;;;;;5062957;28;20270;-51
2021/11/07 18:54:04;;;;;;;18.70;16.80;;;8.00;99.90;;;;;;5057078;28;20543;-52
2021/11/07 18:56:29;;;;;;;19.17;15.50;;;8.00;99.90;;;;;;5060330;28;20209;-53
2021/11/07 18:58:55;;;;;;;17.47;15.57;;;8.00;99.90;;;;;;5062289;28;20177;-56
2021/11/07 19:01:22;;;;;;;17.30;15.50;;;8.00;99.90;;;;;;5063154;22;20253;-57
2021/11/07 19:03:49;;;;;;;16.93;15.13;;;8.00;99.90;;;;;;5046435;28;20178;-56
2021/11/07 19:06:15;;;;;;;15.53;13.90;;;8.00;99.90;;;;;;5048510;28;20181;-56
2021/11/07 19:08:42;;;;;;;15.50;13.77;;;8.70;99.90;;;;;;5049997;28;20229;-55
2021/11/07 19:11:08;;;;;;;17.97;15.57;;;8.10;99.90;;;;;;5050478;28;20186;-55
2021/11/07 19:13:34;;;;;;;18.60;16.70;;;8.10;99.90;;;;;;5050532;28;20238;-56
2021/11/07 19:16:01;;;;;;;17.97;16.07;;;8.10;99.90;;;;;;5048640;28;20570;-52
2021/11/07 19:18:29;;;;;;;17.17;15.37;;;8.10;99.90;;;;;;5048727;28;20175;-57
2021/11/07 19:20:55;;;;;;;18.67;16.73;;;8.20;99.90;;;;;;5049761;28;20186;-54
2021/11/07 19:23:21;;;;;;;17.60;15.73;;;8.20;99.90;;;;;;5050265;28;20183;-58
2021/11/07 19:25:47;;;;;;;17.77;15.97;;;8.20;99.90;;;;;;5049502;28;20183;-54
2021/11/07 19:28:13;;;;;;;16.77;15.03;;;8.30;99.90;;;;;;5049566;28;20183;-53
2021/11/07 19:30:39;;;;;;;19.30;17.30;;;8.30;99.90;;;;;;5050223;28;20709;-57
2021/11/07 19:33:06;;;;;;;17.40;15.63;;;8.30;99.90;;;;;;5050382;28;20186;-53
2021/11/07 19:35:33;;;;;;;15.93;14.23;;;8.30;99.90;;;;;;5050923;28;20175;-57
2021/11/07 19:37:59;;;;;;;17.97;15.80;;;8.20;99.90;;;;;;5050615;28;20194;-53
2021/11/07 19:40:29;;;;;;;18.13;16.23;;;8.20;99.90;;;;;;5050541;28;20190;-53
2021/11/07 19:42:55;;;;;;;17.13;15.33;;;8.10;99.90;;;;;;5050685;28;20174;-57
2021/11/07 19:45:22;;;;;;;17.63;15.37;;;8.10;99.90;;;;;;5050639;28;20216;-53
2021/11/07 19:47:51;;;;;;;18.00;16.10;;;8.00;99.90;;;;;;5050567;28;20175;-57
2021/11/07 19:50:21;;;;;;;18.03;16.13;;;8.00;99.90;;;;;;5050334;28;20571;-57
2021/11/07 19:52:46;;;;;;;18.97;16.97;;;8.10;99.90;;;;;;5050651;28;20170;-55
2021/11/07 19:55:15;;;;;;;17.03;15.33;;;8.00;99.90;;;;;;5050312;28;20566;-53
2021/11/07 19:57:42;;;;;;;18.83;16.37;;;8.00;99.90;;;;;;5050355;28;20651;-57
2021/11/07 20:02:57;;;;;;;17.43;15.63;;;8.10;99.90;;;;;;5050543;28;20543;-60
2021/11/07 20:10:22;;;;;;;17.03;15.23;;;8.20;99.90;;;;;;5030562;28;20203;-53
2021/11/07 20:12:49;;;;;;;17.60;15.80;;;8.30;99.90;;;;;;5030482;28;20179;-53
2021/11/07 20:15:15;;;;;;;18.10;16.20;;;8.20;99.90;;;;;;5030696;28;20265;-59
2021/11/07 20:17:41;;;;;;;16.90;15.00;;;8.20;99.90;;;;;;5042511;28;20193;-58
2021/11/07 20:20:07;;;;;;;17.57;15.57;;;8.20;99.90;;;;;;5050486;28;22273;-53
2021/11/07 20:22:38;;;;;;;17.23;15.43;;;8.30;99.90;;;;;;5050191;28;20206;-57
2021/11/07 20:25:06;;;;;;;17.70;15.80;;;8.20;99.90;;;;;;5049763;28;20194;-57
2021/11/07 20:27:39;;;;;;;17.23;15.43;;;8.30;99.90;;;;;;5052432;28;20183;-57
2021/11/07 20:30:06;;;;;;;16.17;14.47;;;8.30;99.90;;;;;;5052778;28;20252;-58
2021/11/07 20:32:31;;;;;;;16.37;14.67;;;8.40;99.90;;;;;;5048398;28;20184;-55
2021/11/07 20:34:59;;;;;;;16.47;14.77;;;8.40;99.90;;;;;;5053233;28;20206;-52
2021/11/07 20:37:33;;;;;;;16.50;14.67;;;8.40;99.90;;;;;;5053260;28;20171;-60
2021/11/07 20:40:05;;;;;;;16.73;14.90;;;8.40;99.90;;;;;;5052980;28;20191;-56
2021/11/07 20:42:35;;;;;;;17.07;15.27;;;8.40;99.90;;;;;;5053416;28;20655;-49
2021/11/07 20:45:11;;;;;;;18.87;16.87;;;8.40;99.90;;;;;;5052901;28;20216;-51
2021/11/07 20:47:51;;;;;;;18.60;15.63;;;8.40;99.90;;;;;;5053322;28;20210;-49
2021/11/07 20:53:00;;;;;;;17.40;15.53;;;8.40;99.90;;;;;;5053444;28;20181;-60
2021/11/07 20:55:40;;;;;;;18.10;16.13;;;8.40;99.90;;;;;;5052328;28;20341;-53
2021/11/07 21:03:15;;;;;;;17.80;15.90;;;8.40;99.90;;;;;;5052841;28;20632;-56
2021/11/07 21:05:52;;;;;;;17.10;15.40;;;8.40;99.90;;;;;;5053143;28;20182;-57
2021/11/07 21:09:03;;;;;;;16.77;14.97;;;8.40;99.90;;;;;;5052514;28;20182;-59
2021/11/07 21:14:09;;;;;;;17.40;15.57;;;8.40;99.90;;;;;;4990514;28;20649;-57
2021/11/07 21:16:49;;;;;;;16.53;14.83;;;8.40;99.90;;;;;;4990742;28;20224;-60
2021/11/07 21:27:19;;;;;;;17.30;15.10;;;8.00;99.90;;;;;;4979077;28;20192;-57
2021/11/07 21:29:44;;;;;;;18.13;16.23;;;8.00;99.90;;;;;;4989915;28;20193;-54
2021/11/07 21:32:11;;;;;;;17.37;15.57;;;8.00;99.90;;;;;;4990762;28;20196;-57
2021/11/07 21:34:51;;;;;;;17.90;15.93;;;8.10;99.90;;;;;;4978168;28;20284;-59
2021/11/07 21:37:39;;;;;;;16.93;15.13;;;8.10;99.90;;;;;;4989609;28;20219;-53
2021/11/07 21:40:15;;;;;;;18.30;16.40;;;8.30;99.90;;;;;;4990804;28;20179;-55
2021/11/07 21:43:07;;;;;;;18.93;16.60;;;8.30;99.90;;;;;;4987237;28;20197;-53
2021/11/07 21:45:31;;;;;;;18.27;16.37;;;8.20;99.90;;;;;;4978456;28;20276;-58
2021/11/07 21:47:58;;;;;;;18.37;15.40;;;8.00;99.90;;;;;;4989437;28;20608;-57
2021/11/07 21:50:24;;;;;;;17.83;15.93;;;8.00;99.90;;;;;;5039564;28;20207;-55
2021/11/07 21:52:50;;;;;;;18.00;16.10;;;8.00;99.90;;;;;;5051685;28;20290;-58
2021/11/07 21:55:16;;;;;;;17.13;15.33;;;8.00;99.90;;;;;;5035561;28;20206;-54
2021/11/07 21:57:43;;;;;;;22.20;16.03;;;7.90;99.90;;;;;;5047925;28;20167;-57
2021/11/07 22:00:11;;;;;;;18.43;16.17;;;7.90;99.90;;;;;;5050634;28;20191;-60
2021/11/07 22:02:38;;;;;;;17.33;15.57;;;7.90;99.90;;;;;;5050731;28;20651;-58
2021/11/07 22:05:05;;;;;;;17.50;15.70;;;7.90;99.90;;;;;;5050512;28;20258;-59
2021/11/07 22:07:31;;;;;;;18.57;16.57;;;7.80;99.90;;;;;;5051620;28;20171;-58
2021/11/07 22:09:58;;;;;;;18.73;16.77;;;7.80;99.90;;;;;;5051917;28;20258;-61
2021/11/07 22:12:24;;;;;;;17.23;15.53;;;7.80;99.90;;;;;;5051724;28;20175;-56
2021/11/07 22:15:00;;;;;;;19.17;16.17;;;7.80;99.90;;;;;;5051671;28;20199;-54
2021/11/07 22:17:29;;;;;;;17.80;15.90;;;7.90;99.90;;;;;;5051237;28;20171;-53
2021/11/07 22:19:55;;;;;;;17.17;15.37;;;8.00;99.90;;;;;;5050381;28;20240;-55
2021/11/07 22:24:54;;;;;;;18.23;16.30;;;7.90;99.90;;;;;;5051313;28;20190;-55
2021/11/07 22:27:25;;;;;;;17.20;15.40;;;7.80;99.90;;;;;;5050624;28;20187;-50
2021/11/07 22:29:55;;;;;;;17.47;15.67;;;7.70;99.90;;;;;;5049919;28;20179;-54
2021/11/07 22:32:23;;;;;;;17.13;15.30;;;7.80;99.90;;;;;;5050564;28;20185;-50
2021/11/07 22:35:13;;;;;;;17.17;15.27;;;7.80;99.90;;;;;;5050993;28;20285;-52
2021/11/07 22:37:37;;;;;;;18.00;15.40;;;7.80;99.90;;;;;;5050830;28;20179;-54
2021/11/07 22:40:05;;;;;;;18.33;16.37;;;7.70;99.90;;;;;;5051190;28;20539;-54
2021/11/07 22:42:30;;;;;;;17.63;15.63;;;7.80;99.90;;;;;;5051185;28;20167;-54
2021/11/07 22:44:57;;;;;;;20.13;16.43;;;7.80;99.90;;;;;;5049695;28;20662;-52
2021/11/07 22:47:34;;;;;;;20.43;17.73;;;7.90;99.90;;;;;;5050752;28;20641;-52
2021/11/07 22:50:02;;;;;;;16.73;14.93;;;8.00;99.90;;;;;;5050964;28;20162;-54
2021/11/07 23:03:16;;;;;;;16.87;14.27;;;8.30;99.90;;;;;;5009365;28;20179;-57
2021/11/07 23:05:46;;;;;;;16.23;14.53;;;8.30;99.90;;;;;;5051191;28;20181;-53
2021/11/07 23:08:45;;;;;;;15.30;13.70;;;8.40;99.90;;;;;;5050727;28;20266;-57
2021/11/07 23:11:11;;;;;;;15.87;13.40;;;8.50;99.90;;;;;;5049673;28;20325;-57
2021/11/07 23:13:36;;;;;;;15.93;13.87;;;8.50;99.90;;;;;;5049983;28;20281;-57
2021/11/07 23:16:03;;;;;;;18.30;14.80;;;8.40;99.90;;;;;;5050617;28;20530;-55
2021/11/07 23:18:30;;;;;;;16.97;15.27;;;8.00;99.90;;;;;;5050720;28;20619;-56
2021/11/07 23:20:56;;;;;;;15.03;13.43;;;7.80;99.90;;;;;;5050599;28;20274;-55
2021/11/07 23:23:22;;;;;;;15.00;13.40;;;7.80;99.90;;;;;;5050620;28;20897;-59
2021/11/07 23:25:49;;;;;;;15.30;13.70;;;7.90;99.90;;;;;;5050619;28;20167;-58
2021/11/07 23:28:18;;;;;;;16.43;14.63;;;8.00;99.90;;;;;;5049485;28;20250;-54
2021/11/07 23:30:47;;;;;;;16.33;14.63;;;8.00;99.90;;;;;;5050396;28;20190;-55
2021/11/07 23:33:20;;;;;;;16.80;15.10;;;7.80;99.90;;;;;;5050439;28;20182;-58
2021/11/07 23:35:48;;;;;;;16.33;14.37;;;7.60;99.90;;;;;;5050459;28;20175;-57
2021/11/07 23:38:14;;;;;;;16.00;14.23;;;7.50;99.90;;;;;;5050413;28;20178;-54
2021/11/07 23:40:42;;;;;;;16.47;14.70;;;7.60;99.90;;;;;;5050612;28;20187;-56
2021/11/07 23:43:09;;;;;;;16.60;14.83;;;7.50;99.90;;;;;;5050904;28;20171;-53
2021/11/07 23:45:39;;;;;;;16.27;14.63;;;7.50;99.90;;;;;;5050629;28;20631;-54
2021/11/07 23:48:05;;;;;;;15.07;13.57;;;7.50;99.90;;;;;;5050385;28;20492;-56
2021/11/07 23:50:48;;;;;;;15.97;14.23;;;7.60;99.90;;;;;;5050489;28;20644;-55
2021/11/07 23:53:39;;;;;;;15.90;14.20;;;7.80;99.90;;;;;;5050452;28;20175;-54
2021/11/07 23:56:05;;;;;;;15.47;13.87;;;8.10;99.90;;;;;;5052698;28;20190;-56
2021/11/07 23:58:31;;;;;;;16.33;14.63;;;8.20;99.90;;;;;;5054235;28;20543;-57
